createdAt,value
2017-12-19T00:01:25.465Z,5.40
2017-12-19T00:03:52.949Z,6.30
2017-12-19T00:06:20.392Z,6.90
2017-12-19T00:08:47.863Z,6.30
2017-12-19T00:11:15.314Z,7.67
2017-12-19T00:13:42.759Z,8.03
2017-12-19T00:16:10.259Z,11.10
2017-12-19T00:18:37.751Z,4.93
2017-12-19T00:21:05.209Z,5.70
2017-12-19T00:23:32.676Z,4.63
2017-12-19T00:26:00.127Z,5.33
2017-12-19T00:28:27.616Z,8.60
2017-12-19T00:30:55.081Z,6.93
2017-12-19T00:33:22.537Z,8.13
2017-12-19T00:35:50.156Z,6.17
2017-12-19T00:38:17.612Z,8.00
2017-12-19T00:40:45.063Z,7.90
2017-12-19T00:43:12.567Z,9.13
2017-12-19T00:45:40.017Z,11.37
2017-12-19T00:48:07.480Z,5.60
2017-12-19T00:50:35.087Z,5.67
2017-12-19T00:53:02.528Z,7.70
2017-12-19T00:55:29.984Z,7.23
2017-12-19T00:57:57.660Z,21.83
2017-12-19T01:00:25.137Z,23.73
2017-12-19T01:02:52.594Z,16.97
2017-12-19T01:05:20.231Z,9.53
2017-12-19T01:07:47.678Z,7.60
2017-12-19T01:10:15.138Z,8.00
2017-12-19T01:12:42.633Z,6.43
2017-12-19T01:15:10.072Z,5.77
2017-12-19T01:17:37.521Z,9.57
2017-12-19T01:20:04.989Z,8.37
2017-12-19T01:22:32.435Z,6.63
2017-12-19T01:24:59.939Z,6.37
2017-12-19T01:27:27.395Z,6.13
2017-12-19T01:29:54.851Z,10.40
2017-12-19T01:32:22.344Z,10.93
2017-12-19T01:34:49.795Z,11.13
2017-12-19T01:37:17.255Z,9.20
2017-12-19T01:39:44.739Z,12.63
2017-12-19T01:42:12.199Z,17.10
2017-12-19T01:44:39.995Z,10.30
2017-12-19T01:47:07.482Z,12.57
2017-12-19T01:49:34.944Z,10.00
2017-12-19T01:52:02.397Z,14.97
2017-12-19T01:54:29.887Z,8.83
2017-12-19T01:56:57.379Z,10.53
2017-12-19T01:59:24.839Z,8.20
2017-12-19T02:01:52.300Z,11.70
2017-12-19T02:04:19.790Z,11.63
2017-12-19T02:06:47.264Z,21.43
2017-12-19T02:09:14.744Z,9.67
2017-12-19T02:11:42.200Z,13.37
2017-12-19T02:14:09.907Z,11.67
2017-12-19T02:16:42.340Z,11.63
2017-12-19T02:19:09.804Z,9.97
2017-12-19T02:21:37.281Z,13.40
2017-12-19T02:24:04.745Z,10.30
2017-12-19T02:26:32.237Z,19.00
2017-12-19T02:28:59.696Z,13.10
2017-12-19T02:31:27.175Z,12.43
2017-12-19T02:33:54.676Z,12.80
2017-12-19T02:36:22.128Z,24.13
2017-12-19T02:38:49.599Z,10.93
2017-12-19T02:41:17.096Z,12.20
2017-12-19T02:43:44.549Z,10.73
2017-12-19T02:46:12.001Z,9.80
2017-12-19T02:48:39.743Z,11.60
2017-12-19T02:51:07.191Z,13.63
2017-12-19T02:53:34.631Z,7.80
2017-12-19T02:56:02.144Z,16.50
2017-12-19T02:58:29.598Z,12.13
2017-12-19T03:00:57.059Z,10.17
2017-12-19T03:03:24.559Z,11.00
2017-12-19T03:05:52.896Z,9.60
2017-12-19T03:08:20.350Z,11.90
2017-12-19T03:10:47.844Z,11.10
2017-12-19T03:13:15.294Z,15.90
2017-12-19T03:15:42.764Z,10.17
2017-12-19T03:18:10.263Z,12.30
2017-12-19T03:20:37.731Z,10.67
2017-12-19T03:23:05.227Z,13.63
2017-12-19T03:25:32.727Z,17.43
2017-12-19T03:28:00.188Z,12.70
2017-12-19T03:30:27.724Z,12.20
2017-12-19T03:32:55.307Z,15.53
2017-12-19T03:35:22.769Z,13.33
2017-12-19T03:37:50.221Z,10.53
2017-12-19T03:40:17.722Z,15.47
2017-12-19T03:42:45.173Z,13.90
2017-12-19T03:45:12.629Z,12.83
2017-12-19T03:47:40.124Z,11.57
2017-12-19T03:50:07.571Z,11.00
2017-12-19T03:52:35.022Z,16.40
2017-12-19T03:55:02.594Z,12.33
2017-12-19T03:57:30.051Z,16.33
2017-12-19T03:59:57.537Z,13.57
2017-12-19T04:02:24.995Z,13.87
2017-12-19T04:04:52.436Z,16.43
2017-12-19T04:07:19.927Z,17.30
2017-12-19T04:09:47.409Z,16.97
2017-12-19T04:12:14.867Z,13.27
2017-12-19T04:14:42.376Z,16.93
2017-12-19T04:17:09.844Z,13.20
2017-12-19T04:19:37.308Z,15.73
2017-12-19T04:22:04.795Z,12.63
2017-12-19T04:24:32.252Z,14.80
2017-12-19T04:26:59.720Z,13.63
2017-12-19T04:29:27.210Z,11.93
2017-12-19T04:31:54.660Z,13.27
2017-12-19T04:34:22.114Z,22.17
2017-12-19T04:36:49.575Z,9.63
2017-12-19T04:39:17.037Z,11.77
2017-12-19T04:41:44.512Z,12.03
2017-12-19T04:44:11.976Z,15.33
2017-12-19T04:46:39.480Z,14.67
2017-12-19T04:49:06.958Z,10.80
2017-12-19T04:51:34.425Z,15.10
2017-12-19T04:54:01.962Z,14.27
2017-12-19T04:56:29.412Z,14.47
2017-12-19T04:58:56.863Z,14.73
2017-12-19T05:01:24.361Z,15.30
2017-12-19T05:03:51.811Z,13.20
2017-12-19T05:06:19.253Z,13.93
2017-12-19T05:08:46.776Z,16.93
2017-12-19T05:11:14.237Z,11.80
2017-12-19T05:13:41.708Z,13.47
2017-12-19T05:16:09.223Z,13.20
2017-12-19T05:18:36.676Z,15.25
2017-12-19T05:21:04.129Z,13.63
2017-12-19T05:23:31.787Z,14.43
2017-12-19T05:25:59.235Z,18.40
2017-12-19T05:28:26.684Z,10.03
2017-12-19T05:30:54.164Z,13.30
2017-12-19T05:33:21.611Z,17.10
2017-12-19T05:35:49.115Z,13.20
2017-12-19T05:38:16.572Z,11.00
2017-12-19T05:40:44.046Z,16.80
2017-12-19T05:43:11.555Z,13.57
2017-12-19T05:45:39.017Z,14.80
2017-12-19T05:48:06.473Z,11.40
2017-12-19T05:50:33.960Z,13.00
2017-12-19T05:53:01.416Z,10.60
2017-12-19T05:55:28.866Z,10.50
2017-12-19T05:57:56.353Z,13.20
2017-12-19T06:00:23.800Z,19.30
2017-12-19T06:02:51.581Z,13.30
2017-12-19T06:05:19.037Z,13.67
2017-12-19T06:07:46.495Z,18.50
2017-12-19T06:10:13.995Z,14.37
2017-12-19T06:12:41.453Z,13.53
2017-12-19T06:15:08.916Z,13.00
2017-12-19T06:17:36.443Z,14.33
2017-12-19T06:20:03.886Z,16.73
2017-12-19T06:22:31.337Z,19.93
2017-12-19T06:24:59.010Z,14.60
2017-12-19T06:27:26.470Z,15.13
2017-12-19T06:29:53.939Z,15.30
2017-12-19T06:32:21.441Z,17.83
2017-12-19T06:34:48.895Z,16.80
2017-12-19T06:37:16.350Z,15.70
2017-12-19T06:39:43.842Z,23.37
2017-12-19T06:42:11.297Z,14.20
2017-12-19T06:44:38.752Z,13.10
2017-12-19T06:47:06.256Z,21.93
2017-12-19T06:49:33.734Z,21.67
2017-12-19T06:52:01.211Z,28.30
2017-12-19T06:54:28.697Z,18.53
2017-12-19T06:56:56.152Z,19.17
2017-12-19T06:59:23.617Z,14.40
2017-12-19T07:01:51.094Z,18.60
2017-12-19T07:04:18.554Z,19.97
2017-12-19T07:06:46.073Z,19.90
2017-12-19T07:09:13.536Z,15.83
2017-12-19T07:11:40.992Z,13.17
2017-12-19T07:14:08.496Z,15.90
2017-12-19T07:16:35.958Z,11.90
2017-12-19T07:19:03.420Z,18.33
2017-12-19T07:21:30.940Z,15.37
2017-12-19T07:23:58.406Z,19.00
2017-12-19T07:26:25.906Z,16.03
2017-12-19T07:28:53.550Z,18.00
2017-12-19T07:31:21.008Z,22.90
2017-12-19T07:33:48.463Z,15.77
2017-12-19T07:36:15.958Z,21.53
2017-12-19T07:38:43.411Z,23.50
2017-12-19T07:41:10.860Z,31.80
2017-12-19T07:43:38.545Z,25.50
2017-12-19T07:46:06.007Z,28.03
2017-12-19T07:48:33.461Z,27.93
2017-12-19T07:51:00.955Z,23.87
2017-12-19T07:53:28.402Z,22.40
2017-12-19T07:55:55.872Z,26.80
2017-12-19T07:58:23.373Z,26.40
2017-12-19T08:00:50.839Z,24.97
2017-12-19T08:03:18.303Z,22.37
2017-12-19T08:05:45.778Z,25.33
2017-12-19T08:08:13.234Z,24.67
2017-12-19T08:10:40.721Z,25.80
2017-12-19T08:13:08.171Z,32.23
2017-12-19T08:15:35.685Z,24.20
2017-12-19T08:18:03.152Z,29.40
2017-12-19T08:20:30.612Z,22.80
2017-12-19T08:22:58.102Z,26.63
2017-12-19T08:25:25.560Z,28.57
2017-12-19T08:27:53.055Z,24.83
2017-12-19T08:30:20.521Z,23.13
2017-12-19T08:32:47.981Z,24.03
2017-12-19T08:35:15.676Z,23.83
2017-12-19T08:37:43.179Z,21.03
2017-12-19T08:40:10.635Z,25.87
2017-12-19T08:42:38.129Z,26.80
2017-12-19T08:45:05.580Z,26.40
2017-12-19T08:47:33.051Z,25.53
2017-12-19T08:50:00.605Z,22.63
2017-12-19T08:52:28.066Z,26.50
2017-12-19T08:54:55.531Z,26.07
2017-12-19T08:57:23.018Z,20.80
2017-12-19T08:59:50.480Z,21.23
2017-12-19T09:02:17.960Z,21.43
2017-12-19T09:04:45.461Z,21.90
2017-12-19T09:07:12.976Z,28.70
2017-12-19T09:09:40.468Z,30.83
2017-12-19T09:12:07.990Z,22.23
2017-12-19T09:14:35.455Z,22.27
2017-12-19T09:17:02.935Z,28.00
2017-12-19T09:19:30.425Z,20.40
2017-12-19T09:21:57.904Z,24.60
2017-12-19T09:24:25.407Z,24.00
2017-12-19T09:26:52.867Z,25.60
2017-12-19T09:29:20.319Z,24.97
2017-12-19T09:31:47.799Z,22.53
2017-12-19T09:34:15.261Z,25.20
2017-12-19T09:36:42.724Z,30.77
2017-12-19T09:39:10.195Z,24.30
2017-12-19T09:41:37.742Z,20.00
2017-12-19T09:44:05.235Z,23.00
2017-12-19T09:46:32.687Z,21.23
2017-12-19T09:49:00.144Z,24.70
2017-12-19T09:51:27.638Z,22.50
2017-12-19T09:53:55.096Z,33.23
2017-12-19T09:56:22.557Z,25.73
2017-12-19T09:58:50.022Z,26.77
2017-12-19T10:01:17.488Z,28.70
2017-12-19T10:03:44.979Z,25.47
2017-12-19T10:06:12.426Z,30.17
2017-12-19T10:08:39.876Z,23.60
2017-12-19T10:11:07.342Z,29.70
2017-12-19T10:13:34.795Z,31.43
2017-12-19T10:16:02.296Z,30.60
2017-12-19T10:18:29.753Z,28.07
2017-12-19T10:20:57.211Z,25.67
2017-12-19T10:23:24.707Z,29.90
2017-12-19T10:25:52.165Z,27.90
2017-12-19T10:28:19.621Z,29.47
2017-12-19T10:30:47.156Z,30.70
2017-12-19T10:33:14.607Z,34.60
2017-12-19T10:35:42.067Z,35.97
2017-12-19T10:38:09.789Z,34.43
2017-12-19T10:40:37.248Z,28.47
2017-12-19T10:43:04.694Z,35.83
2017-12-19T10:45:32.209Z,30.30
2017-12-19T10:47:59.707Z,33.43
2017-12-19T10:50:27.168Z,39.00
2017-12-19T10:52:54.670Z,33.83
2017-12-19T10:55:22.127Z,30.57
2017-12-19T10:57:49.610Z,29.40
2017-12-19T11:00:17.114Z,28.77
2017-12-19T11:02:44.567Z,31.27
2017-12-19T11:05:12.016Z,32.03
2017-12-19T11:07:39.494Z,34.07
2017-12-19T11:10:06.954Z,39.97
2017-12-19T11:12:34.458Z,36.80
2017-12-19T11:15:01.915Z,38.83
2017-12-19T11:17:29.380Z,33.60
2017-12-19T11:19:56.867Z,45.13
2017-12-19T11:22:24.322Z,41.70
2017-12-19T11:24:51.800Z,34.87
2017-12-19T11:27:19.419Z,44.33
2017-12-19T11:29:46.871Z,62.37
2017-12-19T11:32:14.320Z,45.67
2017-12-19T11:34:41.835Z,35.90
2017-12-19T11:37:09.292Z,42.23
2017-12-19T11:39:36.778Z,40.80
2017-12-19T11:42:04.231Z,42.60
2017-12-19T11:44:31.686Z,47.17
2017-12-19T11:46:59.187Z,47.27
2017-12-19T11:49:26.640Z,45.30
2017-12-19T11:51:54.087Z,57.60
2017-12-19T11:54:21.609Z,54.07
2017-12-19T11:56:49.072Z,86.87
2017-12-19T11:59:16.536Z,43.93
2017-12-19T12:01:44.011Z,54.20
2017-12-19T12:04:11.459Z,46.57
2017-12-19T12:06:38.955Z,45.37
2017-12-19T12:09:06.423Z,43.93
2017-12-19T12:11:33.904Z,40.83
2017-12-19T12:14:01.387Z,39.23
2017-12-19T12:16:28.848Z,43.83
2017-12-19T12:18:56.300Z,42.63
2017-12-19T12:21:23.982Z,52.30
2017-12-19T12:23:51.438Z,44.10
2017-12-19T12:26:18.908Z,44.30
2017-12-19T12:28:46.388Z,42.23
2017-12-19T12:31:13.851Z,48.10
2017-12-19T12:33:41.507Z,38.80
2017-12-19T12:36:08.967Z,38.03
2017-12-19T12:38:36.424Z,45.13
2017-12-19T12:41:04.122Z,42.60
2017-12-19T12:43:31.578Z,38.53
2017-12-19T12:45:59.075Z,34.93
2017-12-19T12:48:26.575Z,36.53
2017-12-19T12:50:54.028Z,40.17
2017-12-19T12:53:21.494Z,36.33
2017-12-19T12:55:48.986Z,37.53
2017-12-19T12:58:16.457Z,45.80
2017-12-19T13:00:43.980Z,31.80
2017-12-19T13:03:11.446Z,33.57
2017-12-19T13:05:38.916Z,34.47
2017-12-19T13:08:06.518Z,45.03
2017-12-19T13:10:33.962Z,31.83
2017-12-19T13:13:01.423Z,37.07
2017-12-19T13:15:28.926Z,37.07
2017-12-19T13:17:56.411Z,41.70
2017-12-19T13:20:23.868Z,40.33
2017-12-19T13:22:51.582Z,32.33
2017-12-19T13:25:19.080Z,37.97
2017-12-19T13:27:46.630Z,41.13
2017-12-19T13:30:14.131Z,39.67
2017-12-19T13:32:41.593Z,42.47
2017-12-19T13:35:09.061Z,37.43
2017-12-19T13:37:36.815Z,38.20
2017-12-19T13:40:04.288Z,40.57
2017-12-19T13:42:31.755Z,35.30
2017-12-19T13:44:59.250Z,37.07
2017-12-19T13:47:26.712Z,37.57
2017-12-19T13:49:54.181Z,38.17
2017-12-19T13:52:21.675Z,41.13
2017-12-19T13:54:49.135Z,44.70
2017-12-19T13:57:16.611Z,37.33
2017-12-19T13:59:44.103Z,39.33
2017-12-19T14:02:11.563Z,37.00
2017-12-19T14:04:39.037Z,36.93
2017-12-19T14:07:06.546Z,30.70
2017-12-19T14:09:34.000Z,29.70
2017-12-19T14:12:01.460Z,31.37
2017-12-19T14:14:28.959Z,29.83
2017-12-19T14:16:56.435Z,34.60
2017-12-19T14:19:23.890Z,29.23
2017-12-19T14:21:51.387Z,34.80
2017-12-19T14:24:18.848Z,32.80
2017-12-19T14:26:46.345Z,36.70
2017-12-19T14:29:13.832Z,41.63
2017-12-19T14:31:41.308Z,40.23
2017-12-19T14:34:08.805Z,39.70
2017-12-19T14:36:36.257Z,39.73
2017-12-19T14:39:03.731Z,34.20
2017-12-19T14:41:31.230Z,38.73
2017-12-19T14:43:58.699Z,33.77
2017-12-19T14:46:26.154Z,39.10
2017-12-19T14:48:53.874Z,34.93
2017-12-19T14:51:21.324Z,33.83
2017-12-19T14:53:48.800Z,30.00
2017-12-19T14:56:16.295Z,33.70
2017-12-19T14:58:43.751Z,32.27
2017-12-19T15:01:11.258Z,36.27
2017-12-19T15:03:38.725Z,43.73
2017-12-19T15:06:06.187Z,38.43
2017-12-19T15:08:33.659Z,38.10
2017-12-19T15:11:01.136Z,38.90
2017-12-19T15:13:28.654Z,43.27
2017-12-19T15:15:56.115Z,31.80
2017-12-19T15:18:23.570Z,35.60
2017-12-19T15:20:51.084Z,39.53
2017-12-19T15:23:18.548Z,37.73
2017-12-19T15:25:46.015Z,39.27
2017-12-19T15:28:13.512Z,36.90
2017-12-19T15:30:41.012Z,38.93
2017-12-19T15:33:08.506Z,39.07
2017-12-19T15:35:36.016Z,51.03
2017-12-19T15:38:03.474Z,47.27
2017-12-19T15:40:30.929Z,42.53
2017-12-19T15:42:58.419Z,40.83
2017-12-19T15:45:25.903Z,38.13
2017-12-19T15:47:53.499Z,41.73
2017-12-19T15:50:20.964Z,43.97
2017-12-19T15:52:48.558Z,39.60
2017-12-19T15:55:16.066Z,46.83
2017-12-19T15:57:44.155Z,44.10
2017-12-19T16:00:11.612Z,41.70
2017-12-19T16:02:39.072Z,42.93
2017-12-19T16:05:06.527Z,45.30
2017-12-19T16:07:34.034Z,43.73
2017-12-19T16:10:01.526Z,42.57
2017-12-19T16:12:29.007Z,46.80
2017-12-19T16:14:56.529Z,46.23
2017-12-19T16:17:24.002Z,51.10
2017-12-19T16:19:51.505Z,51.13
2017-12-19T16:22:18.983Z,52.60
2017-12-19T16:24:46.443Z,47.03
2017-12-19T16:27:13.900Z,44.57
2017-12-19T16:29:42.111Z,44.50
2017-12-19T16:32:09.571Z,49.20
2017-12-19T16:34:37.268Z,46.43
2017-12-19T16:37:04.726Z,54.53
2017-12-19T16:39:32.206Z,61.47
2017-12-19T16:41:59.693Z,46.33
2017-12-19T16:44:27.152Z,60.53
2017-12-19T16:46:54.607Z,44.17
2017-12-19T16:49:22.079Z,44.77
2017-12-19T16:51:50.409Z,48.77
2017-12-19T16:54:18.086Z,53.13
2017-12-19T16:56:45.547Z,47.97
2017-12-19T16:59:13.000Z,48.83
2017-12-19T17:01:40.495Z,50.30
2017-12-19T17:04:07.951Z,48.53
2017-12-19T17:06:35.410Z,60.73
2017-12-19T17:09:02.922Z,42.83
2017-12-19T17:11:30.381Z,50.67
2017-12-19T17:13:57.843Z,51.37
2017-12-19T17:16:25.343Z,50.20
2017-12-19T17:18:52.796Z,52.40
2017-12-19T17:21:20.248Z,50.40
2017-12-19T17:23:47.734Z,50.40
2017-12-19T17:26:15.199Z,50.50
2017-12-19T17:28:42.876Z,56.87
2017-12-19T17:31:10.335Z,61.93
2017-12-19T17:33:37.786Z,52.17
2017-12-19T17:36:05.446Z,52.37
2017-12-19T17:38:32.904Z,51.73
2017-12-19T17:41:00.357Z,53.77
2017-12-19T17:43:28.031Z,51.17
2017-12-19T17:45:55.479Z,52.10
2017-12-19T17:48:22.943Z,56.10
2017-12-19T17:50:50.413Z,61.20
2017-12-19T17:53:17.884Z,61.17
2017-12-19T17:55:45.488Z,58.47
2017-12-19T17:58:12.947Z,56.30
2017-12-19T18:00:40.404Z,50.53
2017-12-19T18:03:07.889Z,54.40
2017-12-19T18:05:35.346Z,54.43
2017-12-19T18:08:02.819Z,55.13
2017-12-19T18:10:30.359Z,45.70
2017-12-19T18:12:57.813Z,51.13
2017-12-19T18:15:25.317Z,53.20
2017-12-19T18:17:52.781Z,52.90
2017-12-19T18:20:20.259Z,51.80
2017-12-19T18:22:47.723Z,53.17
2017-12-19T18:25:15.173Z,55.37
2017-12-19T18:27:42.672Z,60.13
2017-12-19T18:30:10.127Z,48.77
2017-12-19T18:32:37.587Z,59.43
2017-12-19T18:35:05.068Z,51.70
2017-12-19T18:37:32.581Z,58.37
2017-12-19T18:40:00.052Z,53.33
2017-12-19T18:42:27.533Z,54.30
2017-12-19T18:44:55.006Z,58.10
2017-12-19T18:47:22.492Z,62.20
2017-12-19T18:49:50.010Z,58.40
2017-12-19T18:52:17.506Z,55.90
2017-12-19T18:54:44.976Z,60.03
2017-12-19T18:57:12.552Z,55.67
2017-12-19T18:59:40.003Z,54.77
2017-12-19T19:02:07.459Z,56.53
2017-12-19T19:04:35.069Z,53.47
2017-12-19T19:07:02.541Z,48.50
2017-12-19T19:09:29.995Z,56.00
2017-12-19T19:11:57.488Z,54.07
2017-12-19T19:14:24.947Z,62.83
2017-12-19T19:16:52.403Z,65.30
2017-12-19T19:19:19.897Z,55.30
2017-12-19T19:21:47.362Z,52.60
2017-12-19T19:24:14.808Z,53.83
2017-12-19T19:26:42.270Z,50.90
2017-12-19T19:29:09.721Z,57.87
2017-12-19T19:31:37.208Z,54.97
2017-12-19T19:34:04.665Z,58.93
2017-12-19T19:36:32.309Z,57.77
2017-12-19T19:38:59.765Z,58.37
2017-12-19T19:41:27.223Z,56.07
2017-12-19T19:43:54.726Z,63.37
2017-12-19T19:46:22.204Z,59.57
2017-12-19T19:48:49.679Z,54.45
2017-12-19T19:51:17.358Z,57.17
2017-12-19T19:53:44.843Z,50.10
2017-12-19T19:56:12.302Z,50.33
2017-12-19T19:58:39.804Z,58.55
2017-12-19T20:01:07.259Z,67.90
2017-12-19T20:03:34.719Z,66.43
2017-12-19T20:06:02.246Z,65.67
2017-12-19T20:08:29.699Z,54.30
2017-12-19T20:10:57.150Z,56.37
2017-12-19T20:13:24.861Z,50.63
2017-12-19T20:15:52.331Z,61.23
2017-12-19T20:18:19.788Z,48.37
2017-12-19T20:20:47.282Z,47.80
2017-12-19T20:23:14.742Z,92.70
2017-12-19T20:25:42.216Z,50.83
2017-12-19T20:28:09.690Z,80.67
2017-12-19T20:30:37.172Z,55.37
2017-12-19T20:33:04.625Z,49.63
2017-12-19T20:35:32.087Z,47.97
2017-12-19T20:37:59.575Z,45.33
2017-12-19T20:40:27.067Z,46.95
2017-12-19T20:42:54.573Z,45.10
2017-12-19T20:45:22.043Z,47.50
2017-12-19T20:47:49.502Z,51.17
2017-12-19T20:50:16.994Z,45.97
2017-12-19T20:52:44.455Z,43.27
2017-12-19T20:55:11.950Z,47.70
2017-12-19T20:57:39.411Z,43.83
2017-12-19T21:00:06.915Z,42.90
2017-12-19T21:02:34.381Z,44.13
2017-12-19T21:05:01.835Z,46.53
2017-12-19T21:07:29.347Z,45.37
2017-12-19T21:09:56.801Z,49.70
2017-12-19T21:12:24.298Z,50.60
2017-12-19T21:14:51.760Z,50.43
2017-12-19T21:17:19.373Z,49.43
2017-12-19T21:19:46.824Z,52.67
2017-12-19T21:22:14.283Z,51.60
2017-12-19T21:24:41.788Z,54.77
2017-12-19T21:27:09.259Z,53.97
2017-12-19T21:29:36.754Z,49.57
2017-12-19T21:32:04.209Z,56.93
2017-12-19T21:34:31.663Z,50.77
2017-12-19T21:36:59.191Z,56.73
2017-12-19T21:39:26.641Z,53.97
2017-12-19T21:41:54.123Z,51.00
2017-12-19T21:44:21.590Z,50.03
2017-12-19T21:46:49.139Z,49.13
2017-12-19T21:49:16.692Z,48.23
2017-12-19T21:51:44.146Z,47.23
2017-12-19T21:54:11.634Z,50.30
2017-12-19T21:56:39.122Z,49.70
2017-12-19T21:59:06.579Z,49.20
2017-12-19T22:01:34.228Z,43.70
2017-12-19T22:04:01.693Z,42.77
2017-12-19T22:06:29.195Z,43.67
2017-12-19T22:08:56.666Z,41.43
2017-12-19T22:11:24.125Z,44.90
2017-12-19T22:13:51.626Z,34.13
2017-12-19T22:16:19.079Z,45.70
2017-12-19T22:18:46.532Z,56.60
2017-12-19T22:21:14.007Z,34.70
2017-12-19T22:23:41.549Z,39.30
2017-12-19T22:26:09.020Z,33.60
2017-12-19T22:28:36.468Z,31.10
2017-12-19T22:31:04.000Z,30.60
2017-12-19T22:33:31.470Z,35.90
2017-12-19T22:35:58.930Z,29.40
2017-12-19T22:38:27.400Z,33.30
2017-12-19T22:40:54.856Z,31.70
2017-12-19T22:43:22.349Z,30.87
2017-12-19T22:45:49.821Z,28.27
2017-12-19T22:48:17.304Z,28.70
2017-12-19T22:50:44.781Z,34.80
2017-12-19T22:53:12.256Z,27.67
2017-12-19T22:55:39.768Z,25.17
2017-12-19T22:58:07.237Z,26.60
2017-12-19T23:00:34.685Z,27.43
2017-12-19T23:03:02.164Z,29.57
2017-12-19T23:05:29.628Z,32.80
2017-12-19T23:07:57.342Z,29.07
2017-12-19T23:10:24.819Z,31.20
2017-12-19T23:12:52.263Z,30.03
2017-12-19T23:15:19.752Z,27.17
2017-12-19T23:17:47.203Z,29.27
2017-12-19T23:20:14.703Z,27.23
2017-12-19T23:22:42.186Z,32.17
2017-12-19T23:25:09.643Z,29.10
2017-12-19T23:27:37.111Z,30.10
2017-12-19T23:30:04.628Z,31.50
2017-12-19T23:32:32.288Z,29.43
2017-12-19T23:34:59.747Z,28.53
2017-12-19T23:37:27.203Z,31.20
2017-12-19T23:39:54.680Z,29.47
2017-12-19T23:42:22.127Z,27.70
2017-12-19T23:44:49.645Z,32.30
2017-12-19T23:47:17.098Z,30.97
2017-12-19T23:49:44.582Z,28.90
2017-12-19T23:52:12.047Z,29.17
2017-12-19T23:54:39.495Z,30.60
2017-12-19T23:57:07.045Z,27.43
2017-12-19T23:59:34.525Z,28.57
